createdAt,value
2023-05-02T00:02:59.544Z,0.22
2023-05-02T00:06:04.073Z,0.18
2023-05-02T00:09:08.250Z,0.21
2023-05-02T00:12:12.079Z,0.34
2023-05-02T00:15:16.002Z,0.33
2023-05-02T00:18:20.413Z,0.23
2023-05-02T00:21:24.443Z,0.21
2023-05-02T00:24:28.383Z,0.19
2023-05-02T00:27:32.269Z,0.30
2023-05-02T00:30:36.327Z,0.18
2023-05-02T00:33:40.546Z,0.19
2023-05-02T00:37:00.138Z,0.24
2023-05-02T00:40:05.164Z,0.22
2023-05-02T00:43:09.128Z,0.15
2023-05-02T00:46:13.432Z,0.28
2023-05-02T00:49:17.648Z,0.23
2023-05-02T00:52:21.526Z,0.23
2023-05-02T00:55:25.703Z,0.24
2023-05-02T00:58:29.933Z,0.37
2023-05-02T01:01:34.006Z,0.26
2023-05-02T01:04:37.968Z,0.24
2023-05-02T01:07:41.918Z,0.27
2023-05-02T01:10:45.425Z,0.24
2023-05-02T01:13:51.750Z,0.26
2023-05-02T01:16:55.740Z,0.31
2023-05-02T01:20:00.058Z,0.28
2023-05-02T01:23:04.374Z,0.31
2023-05-02T01:26:08.405Z,0.25
2023-05-02T01:29:12.341Z,0.23
2023-05-02T01:32:16.514Z,0.32
2023-05-02T01:35:21.258Z,0.27
2023-05-02T01:38:24.998Z,0.26
2023-05-02T01:41:28.968Z,0.29
2023-05-02T01:44:33.063Z,0.34
2023-05-02T01:47:37.276Z,0.33
2023-05-02T01:50:41.780Z,0.31
2023-05-02T01:53:45.633Z,0.27
2023-05-02T01:56:49.815Z,0.30
2023-05-02T01:59:53.903Z,0.30
2023-05-02T02:02:57.883Z,0.29
2023-05-02T02:06:02.022Z,0.33
2023-05-02T02:09:06.216Z,0.32
2023-05-02T02:12:09.856Z,0.19
2023-05-02T02:15:13.983Z,0.44
2023-05-02T02:18:18.053Z,0.32
2023-05-02T02:21:21.930Z,0.33
2023-05-02T02:24:25.947Z,0.37
2023-05-02T02:27:30.005Z,0.32
2023-05-02T02:30:34.959Z,0.33
2023-05-02T02:33:39.007Z,0.33
2023-05-02T02:36:42.942Z,0.32
2023-05-02T02:39:47.150Z,0.33
2023-05-02T02:42:51.147Z,0.37
2023-05-02T02:45:55.233Z,0.34
2023-05-02T02:48:58.976Z,0.34
2023-05-02T02:52:03.050Z,0.51
2023-05-02T02:55:07.160Z,0.44
2023-05-02T02:58:11.208Z,0.38
2023-05-02T03:01:15.453Z,0.48
2023-05-02T03:04:19.610Z,0.43
2023-05-02T03:07:23.463Z,0.51
2023-05-02T03:10:27.487Z,0.48
2023-05-02T03:13:31.586Z,0.48
2023-05-02T03:16:35.659Z,0.58
2023-05-02T03:19:39.471Z,0.38
2023-05-02T03:22:43.506Z,0.46
2023-05-02T03:25:47.615Z,0.39
2023-05-02T03:28:51.447Z,0.45
2023-05-02T03:31:55.230Z,0.52
2023-05-02T03:34:59.004Z,0.58
2023-05-02T03:38:03.336Z,0.48
2023-05-02T03:41:07.612Z,0.44
2023-05-02T03:44:11.602Z,0.67
2023-05-02T03:47:15.583Z,0.53
2023-05-02T03:50:19.474Z,0.57
2023-05-02T03:53:23.780Z,0.48
2023-05-02T03:56:28.170Z,0.48
2023-05-02T03:59:31.958Z,0.45
2023-05-02T04:02:35.956Z,0.51
2023-05-02T04:05:39.820Z,0.62
2023-05-02T04:08:43.772Z,0.56
2023-05-02T04:11:47.619Z,0.42
2023-05-02T04:14:51.685Z,0.51
2023-05-02T04:17:56.053Z,0.64
2023-05-02T04:20:59.932Z,0.51
2023-05-02T04:24:03.899Z,0.54
2023-05-02T04:27:07.848Z,0.48
2023-05-02T04:30:11.830Z,0.49
2023-05-02T04:33:15.810Z,0.76
2023-05-02T04:36:19.642Z,0.58
2023-05-02T04:39:23.872Z,0.55
2023-05-02T04:42:27.777Z,0.54
2023-05-02T04:45:31.763Z,0.57
2023-05-02T04:48:35.855Z,0.62
2023-05-02T04:51:39.833Z,0.69
2023-05-02T04:54:43.262Z,0.57
2023-05-02T04:57:47.519Z,0.64
2023-05-02T05:00:51.732Z,0.64
2023-05-02T05:03:55.755Z,0.66
2023-05-02T05:06:59.673Z,0.57
2023-05-02T05:10:03.726Z,0.74
2023-05-02T05:13:07.773Z,0.54
2023-05-02T05:16:11.805Z,0.56
2023-05-02T05:19:15.880Z,0.47
2023-05-02T05:22:19.685Z,0.59
2023-05-02T05:25:23.567Z,0.71
2023-05-02T05:28:28.295Z,0.52
2023-05-02T05:31:32.626Z,0.52
2023-05-02T05:34:36.714Z,0.61
2023-05-02T05:37:40.685Z,0.65
2023-05-02T05:40:44.598Z,0.62
2023-05-02T05:43:48.602Z,0.57
2023-05-02T05:46:52.853Z,0.61
2023-05-02T05:49:56.965Z,0.57
2023-05-02T06:26:09.854Z,0.50
2023-05-02T06:33:43.042Z,0.38
2023-05-02T06:36:39.244Z,0.44
2023-05-02T06:39:45.507Z,0.53
2023-05-02T06:49:47.366Z,0.64
2023-05-02T06:52:54.255Z,0.51
2023-05-02T06:56:03.760Z,0.51
2023-05-02T07:02:33.116Z,0.46
2023-05-02T07:05:37.295Z,0.51
2023-05-02T07:08:42.418Z,0.39
2023-05-02T07:11:46.188Z,0.44
2023-05-02T07:14:50.251Z,0.47
2023-05-02T07:17:54.205Z,0.49
2023-05-02T07:24:30.478Z,0.41
2023-05-02T07:27:47.490Z,0.52
2023-05-02T07:30:51.976Z,0.42
2023-05-02T07:33:57.684Z,0.34
2023-05-02T07:37:16.258Z,0.53
2023-05-02T07:43:49.890Z,0.37
2023-05-02T07:54:08.848Z,0.51
2023-05-02T08:14:03.303Z,0.61
2023-05-02T08:18:04.687Z,0.51
2023-05-02T10:33:33.403Z,0.42
2023-05-02T10:36:49.773Z,0.42
2023-05-02T10:39:54.264Z,0.46
2023-05-02T10:49:19.740Z,0.67
2023-05-02T10:58:58.986Z,0.30
2023-05-02T11:02:07.208Z,0.29
2023-05-02T11:48:25.268Z,0.30
2023-05-02T11:51:45.669Z,0.32
2023-05-02T11:55:08.706Z,0.31
2023-05-02T13:18:28.611Z,0.26
2023-05-02T13:24:10.962Z,0.32
2023-05-02T13:27:26.474Z,0.35
2023-05-02T13:31:24.215Z,0.36
2023-05-02T13:40:23.508Z,0.50
2023-05-02T13:43:27.613Z,0.29
2023-05-02T13:46:31.459Z,0.31
2023-05-02T13:49:35.248Z,0.36
2023-05-02T13:52:39.285Z,0.37
2023-05-02T13:55:46.176Z,0.47
2023-05-02T13:58:51.712Z,0.36
2023-05-02T14:01:57.024Z,0.32
2023-05-02T14:05:01.154Z,0.35
2023-05-02T14:08:05.334Z,0.39
2023-05-02T14:11:09.438Z,0.37
2023-05-02T14:14:13.506Z,0.26
2023-05-02T14:17:17.520Z,0.24
2023-05-02T14:20:21.262Z,0.23
2023-05-02T14:23:25.411Z,0.27
2023-05-02T14:26:29.741Z,0.32
2023-05-02T14:29:33.755Z,0.27
2023-05-02T14:32:40.026Z,0.56
2023-05-02T14:35:45.931Z,0.26
2023-05-02T14:38:49.996Z,0.36
2023-05-02T14:41:55.042Z,0.52
2023-05-02T14:44:59.924Z,0.34
2023-05-02T14:48:05.268Z,0.44
2023-05-02T14:51:09.578Z,0.33
2023-05-02T14:54:17.802Z,0.26
2023-05-02T14:57:21.978Z,0.30
2023-05-02T15:00:34.642Z,0.30
2023-05-02T15:03:52.317Z,0.30
2023-05-02T15:07:03.064Z,0.33
2023-05-02T15:10:10.231Z,0.26
2023-05-02T15:13:14.406Z,0.29
2023-05-02T15:16:19.065Z,0.28
2023-05-02T15:19:22.890Z,0.35
2023-05-02T15:22:26.905Z,0.32
2023-05-02T16:04:31.761Z,0.36
2023-05-02T16:51:51.900Z,0.30
2023-05-02T17:05:21.041Z,0.30
2023-05-02T17:15:06.941Z,0.41
2023-05-02T17:24:55.621Z,0.32
2023-05-02T17:27:59.946Z,0.35
2023-05-02T17:38:26.551Z,0.46
2023-05-02T17:41:37.730Z,0.39
2023-05-02T17:45:02.231Z,0.42
2023-05-02T17:51:43.027Z,0.26
2023-05-02T17:54:47.389Z,0.38
2023-05-02T17:57:54.546Z,0.24
2023-05-02T18:01:02.840Z,0.24
2023-05-02T18:05:42.865Z,0.37
2023-05-02T18:14:15.880Z,0.46
2023-05-02T18:17:38.327Z,0.55
2023-05-02T18:20:44.659Z,0.38
2023-05-02T18:23:48.841Z,0.50
2023-05-02T18:26:53.342Z,0.50
2023-05-02T18:29:57.640Z,0.40
2023-05-02T18:33:05.623Z,0.34
2023-05-02T18:36:10.828Z,0.50
2023-05-02T18:39:14.761Z,0.28
2023-05-02T18:42:19.795Z,0.56
2023-05-02T18:45:26.567Z,0.49
2023-05-02T18:48:37.796Z,0.61
2023-05-02T18:51:46.324Z,0.54
2023-05-02T18:54:50.758Z,0.51
2023-05-02T18:57:57.003Z,0.50
2023-05-02T19:01:00.883Z,0.41
2023-05-02T19:04:06.279Z,0.51
2023-05-02T19:07:13.201Z,0.45
2023-05-02T19:13:48.184Z,0.45
2023-05-02T19:17:05.046Z,0.38
2023-05-02T19:20:09.541Z,0.43
2023-05-02T19:23:20.560Z,0.37
2023-05-02T19:29:59.174Z,0.38
2023-05-02T19:36:30.159Z,0.39
2023-05-02T19:39:34.126Z,0.32
2023-05-02T19:42:52.270Z,0.50
2023-05-02T19:46:07.855Z,0.61
2023-05-02T19:49:28.018Z,0.38
2023-05-02T19:59:12.470Z,0.31
2023-05-02T20:02:17.438Z,0.34
2023-05-02T20:05:21.472Z,0.36
2023-05-02T20:08:25.641Z,0.46
2023-05-02T20:11:29.610Z,0.46
2023-05-02T20:14:33.763Z,0.40
2023-05-02T20:17:38.121Z,0.30
2023-05-02T20:20:45.249Z,0.33
2023-05-02T20:23:48.877Z,0.40
2023-05-02T20:26:56.625Z,0.33
2023-05-02T20:30:00.931Z,0.29
2023-05-02T20:33:14.877Z,0.34
2023-05-02T20:36:29.053Z,0.65
2023-05-02T20:39:38.601Z,0.51
2023-05-02T20:42:44.543Z,0.39
2023-05-02T20:45:48.663Z,0.35
2023-05-02T20:48:55.788Z,0.42
2023-05-02T20:52:03.963Z,0.46
2023-05-02T20:55:08.236Z,0.42
2023-05-02T20:58:11.902Z,0.41
2023-05-02T21:01:16.446Z,0.30
2023-05-02T21:04:24.330Z,0.52
2023-05-02T21:07:29.900Z,0.46
2023-05-02T21:10:43.236Z,0.35
2023-05-02T21:14:02.922Z,0.40
2023-05-02T21:17:09.823Z,0.60
2023-05-02T21:20:17.149Z,0.50
2023-05-02T21:23:23.936Z,0.29
2023-05-02T21:26:28.101Z,0.36
2023-05-02T21:29:34.348Z,0.39
2023-05-02T21:32:38.618Z,0.36
2023-05-02T21:35:44.644Z,0.37
2023-05-02T21:38:52.012Z,0.35
2023-05-02T21:41:55.582Z,0.36
2023-05-02T21:44:59.537Z,0.29
2023-05-02T21:48:03.821Z,0.27
2023-05-02T21:51:07.868Z,0.29
2023-05-02T21:54:20.917Z,0.30
2023-05-02T21:57:24.932Z,0.41
2023-05-02T22:00:31.742Z,0.25
2023-05-02T22:03:35.705Z,0.34
2023-05-02T22:06:39.829Z,0.37
2023-05-02T22:09:44.805Z,0.41
2023-05-02T22:12:48.839Z,0.38
2023-05-02T22:15:53.123Z,0.41
2023-05-02T22:18:57.006Z,0.30
2023-05-02T22:22:01.131Z,0.39
2023-05-02T22:25:04.899Z,0.36
2023-05-02T22:28:08.993Z,0.32
2023-05-02T22:31:13.085Z,0.39
2023-05-02T22:34:16.716Z,0.49
2023-05-02T22:37:20.522Z,0.32
2023-05-02T22:40:28.362Z,0.45
2023-05-02T22:43:40.274Z,0.44
2023-05-02T22:46:45.466Z,0.32
2023-05-02T22:49:49.522Z,0.36
2023-05-02T22:52:53.435Z,0.30
2023-05-02T22:55:57.384Z,0.47
2023-05-02T22:59:01.067Z,0.37
2023-05-02T23:02:05.226Z,0.50
2023-05-02T23:05:09.032Z,0.38
2023-05-02T23:08:13.048Z,0.54
2023-05-02T23:11:17.069Z,0.46
2023-05-02T23:14:21.238Z,0.56
2023-05-02T23:17:25.035Z,0.55
2023-05-02T23:20:29.098Z,0.57
2023-05-02T23:23:33.154Z,0.46
2023-05-02T23:26:37.238Z,0.58
2023-05-02T23:29:41.447Z,0.59
2023-05-02T23:32:45.914Z,0.45
2023-05-02T23:35:49.696Z,0.52
2023-05-02T23:38:53.638Z,0.47
2023-05-02T23:41:57.508Z,0.55
2023-05-02T23:45:02.888Z,0.52
2023-05-02T23:48:07.091Z,0.59
2023-05-02T23:51:10.930Z,0.63
2023-05-02T23:54:14.681Z,0.52
2023-05-02T23:57:18.700Z,0.55
